Time;durP1;ratioP1;P1;durP2;ratioP2;P2;SDS_P1;SDS_P2;PMS_P1;PMS_P2;Temp;Humidity;BMP_temperature;BMP_pressure;BME280_temperature;BME280_humidity;BME280_pressure;Samples;Min_cycle;Max_cycle;Signal;HPM_P1;HPM_P2
2023/02/28 00:00:10;;;;;;;21.70;13.57;;;6.50;99.90;;;;;;4918880;29;20130;-71
2023/02/28 00:02:43;;;;;;;20.35;12.45;;;6.50;99.90;;;;;;4933845;29;20383;-68
2023/02/28 00:05:16;;;;;;;23.48;13.10;;;6.50;99.90;;;;;;4917191;29;20387;-69
2023/02/28 00:07:43;;;;;;;23.92;13.63;;;6.60;99.90;;;;;;4932305;29;20131;-70
2023/02/28 00:10:13;;;;;;;23.58;12.63;;;6.70;99.90;;;;;;4950449;29;20047;-69
2023/02/28 00:12:41;;;;;;;17.92;12.23;;;6.80;99.90;;;;;;4951422;29;20039;-73
2023/02/28 00:15:10;;;;;;;24.85;12.18;;;6.80;99.90;;;;;;4951963;29;20047;-71
2023/02/28 00:17:38;;;;;;;24.42;12.90;;;7.00;99.90;;;;;;4952043;29;20169;-71
2023/02/28 00:20:09;;;;;;;22.58;12.50;;;6.80;99.90;;;;;;4948242;29;20039;-72
2023/02/28 00:22:42;;;;;;;20.02;13.27;;;6.90;99.90;;;;;;4950528;29;20138;-71
2023/02/28 00:25:12;;;;;;;22.65;13.30;;;6.80;99.90;;;;;;4940679;29;20122;-70
2023/02/28 00:27:40;;;;;;;;;;;6.90;99.90;;;;;;4935568;29;20050;-71
2023/02/28 00:30:11;;;;;;;21.52;13.05;;;6.70;99.90;;;;;;4952476;29;20299;-73
2023/02/28 00:32:38;;;;;;;31.20;18.30;;;6.80;99.90;;;;;;4934966;29;20047;-69
2023/02/28 00:35:06;;;;;;;23.25;13.90;;;6.70;99.90;;;;;;4948262;29;20036;-71
2023/02/28 00:37:36;;;;;;;23.58;13.60;;;6.80;99.90;;;;;;4951165;29;20047;-73
2023/02/28 00:40:05;;;;;;;19.85;12.70;;;6.80;99.90;;;;;;4952730;29;20498;-70
2023/02/28 00:42:36;;;;;;;21.80;13.32;;;6.90;99.90;;;;;;4944778;29;20487;-71
2023/02/28 00:45:04;;;;;;;20.33;12.27;;;6.60;99.90;;;;;;4935239;29;20055;-70
2023/02/28 00:47:32;;;;;;;21.25;12.23;;;6.70;99.90;;;;;;4951878;29;20035;-70
2023/02/28 00:50:05;;;;;;;20.65;12.50;;;6.70;99.90;;;;;;4926365;29;20063;-71
2023/02/28 00:52:32;;;;;;;19.35;12.05;;;6.80;99.90;;;;;;4951813;29;20027;-70
2023/02/28 00:55:00;;;;;;;18.15;10.98;;;6.90;99.90;;;;;;4952444;28;20515;-70
2023/02/28 00:57:27;;;;;;;21.98;12.73;;;7.00;99.90;;;;;;4938024;29;20036;-73
2023/02/28 00:59:54;;;;;;;19.90;12.10;;;6.90;99.90;;;;;;4951994;29;20126;-70
2023/02/28 01:02:22;;;;;;;17.60;11.68;;;6.90;99.90;;;;;;4934996;29;20047;-71
2023/02/28 01:04:50;;;;;;;19.05;11.68;;;7.00;99.90;;;;;;4952319;29;20078;-72
2023/02/28 01:07:17;;;;;;;20.30;11.50;;;7.00;99.90;;;;;;4948785;29;20044;-71
2023/02/28 01:09:44;;;;;;;20.45;12.45;;;6.90;99.90;;;;;;4945332;28;20047;-71
2023/02/28 01:12:13;;;;;;;21.92;11.75;;;6.90;99.90;;;;;;4922857;29;20079;-71
2023/02/28 01:14:40;;;;;;;18.95;12.25;;;6.80;99.90;;;;;;4938879;29;20098;-71
2023/02/28 01:17:08;;;;;;;20.58;12.05;;;6.90;99.90;;;;;;4922529;29;20425;-71
2023/02/28 01:19:35;;;;;;;22.17;12.30;;;7.00;99.90;;;;;;4922919;29;20048;-70
2023/02/28 01:22:04;;;;;;;19.50;12.02;;;7.10;99.90;;;;;;4938849;29;20066;-70
2023/02/28 01:24:32;;;;;;;18.38;11.48;;;7.00;99.90;;;;;;4920495;29;20043;-72
2023/02/28 01:27:00;;;;;;;19.23;12.45;;;6.90;99.90;;;;;;4912513;29;20051;-71
2023/02/28 01:29:28;;;;;;;19.23;12.27;;;7.00;99.90;;;;;;4954623;29;20387;-67
2023/02/28 01:31:59;;;;;;;20.70;12.18;;;6.90;99.90;;;;;;4923507;29;20062;-72
2023/02/28 01:34:27;;;;;;;20.45;12.13;;;6.90;99.90;;;;;;4955005;29;20043;-68
2023/02/28 01:36:54;;;;;;;21.83;12.10;;;6.80;99.90;;;;;;4955262;29;20078;-70
2023/02/28 01:39:21;;;;;;;22.58;12.18;;;6.60;99.90;;;;;;4937758;29;20032;-70
2023/02/28 01:41:51;;;;;;;18.57;12.10;;;6.70;99.90;;;;;;4922874;29;20073;-71
2023/02/28 01:44:56;;;;;;;19.48;12.32;;;6.70;99.90;;;;;;4922297;29;20286;-72
2023/02/28 01:47:26;;;;;;;19.42;12.30;;;6.80;99.90;;;;;;4934521;29;20492;-70
2023/02/28 01:49:54;;;;;;;;;;;6.60;99.90;;;;;;4935646;29;20066;-72
2023/02/28 01:52:24;;;;;;;20.00;11.70;;;6.50;99.90;;;;;;4938090;29;20405;-68
2023/02/28 01:54:56;;;;;;;19.65;12.30;;;6.40;99.90;;;;;;4954733;29;20043;-70
2023/02/28 01:57:37;;;;;;;21.20;12.73;;;6.50;99.90;;;;;;4922357;29;20043;-71
2023/02/28 02:00:16;;;;;;;20.08;13.15;;;6.50;99.90;;;;;;4950241;29;20067;-71
2023/02/28 02:02:48;;;;;;;18.98;11.90;;;6.60;99.90;;;;;;4923963;29;20039;-71
2023/02/28 02:05:25;;;;;;;21.67;13.30;;;6.60;99.90;;;;;;4933322;29;20130;-70
2023/02/28 02:07:56;;;;;;;21.77;12.63;;;6.50;99.90;;;;;;4954886;29;20035;-69
2023/02/28 02:10:32;;;;;;;20.75;12.60;;;6.50;99.90;;;;;;4954076;29;20043;-71
2023/02/28 02:13:27;;;;;;;20.58;11.73;;;6.40;99.90;;;;;;4937437;29;20139;-72
2023/02/28 02:16:19;;;;;;;20.58;13.02;;;6.50;99.90;;;;;;4928289;29;20043;-71
2023/02/28 02:18:56;;;;;;;21.98;13.02;;;6.60;99.90;;;;;;4930448;29;20061;-70
2023/02/28 02:21:51;;;;;;;22.08;13.38;;;6.50;99.90;;;;;;4945405;29;20039;-71
2023/02/28 02:24:42;;;;;;;23.95;12.45;;;6.60;99.90;;;;;;4954349;29;20035;-69
2023/02/28 02:27:37;;;;;;;20.35;12.50;;;6.50;99.90;;;;;;4950051;29;20051;-70
2023/02/28 02:30:29;;;;;;;20.63;13.20;;;6.60;99.90;;;;;;4938328;29;20374;-70
2023/02/28 02:33:37;;;;;;;20.23;12.07;;;6.50;99.90;;;;;;4951539;29;20038;-69
2023/02/28 02:36:16;;;;;;;18.95;12.35;;;6.50;99.90;;;;;;4920224;29;20444;-68
2023/02/28 02:39:14;;;;;;;23.07;13.00;;;6.60;99.90;;;;;;4937464;29;20058;-71
2023/02/28 02:42:16;;;;;;;21.25;12.63;;;6.30;99.90;;;;;;4954757;29;20086;-71
2023/02/28 02:44:48;;;;;;;18.70;12.88;;;6.60;99.90;;;;;;4937152;29;20126;-73
2023/02/28 02:47:20;;;;;;;19.13;12.10;;;6.70;99.90;;;;;;4953351;29;20036;-70
2023/02/28 02:49:56;;;;;;;22.58;13.88;;;6.70;99.90;;;;;;4920648;29;20071;-72
2023/02/28 02:52:34;;;;;;;20.00;13.65;;;6.70;99.90;;;;;;4953847;29;20130;-73
2023/02/28 02:55:02;;;;;;;22.52;13.10;;;6.70;99.90;;;;;;4954338;29;20039;-70
2023/02/28 02:57:52;;;;;;;23.95;13.80;;;6.60;99.90;;;;;;4921183;29;20050;-72
2023/02/28 03:00:41;;;;;;;23.83;13.70;;;6.50;99.90;;;;;;4935841;29;20054;-70
2023/02/28 03:03:11;;;;;;;;;;;6.50;99.90;;;;;;4954390;29;20051;-70
2023/02/28 03:05:46;;;;;;;25.08;13.27;;;6.60;99.90;;;;;;4936787;29;19923;-69
2023/02/28 03:08:14;;;;;;;23.05;12.63;;;6.70;99.90;;;;;;4953521;29;20460;-69
2023/02/28 03:10:46;;;;;;;24.63;13.77;;;6.90;99.90;;;;;;4941050;29;20062;-71
2023/02/28 03:13:34;;;;;;;24.30;13.88;;;6.90;99.90;;;;;;4953125;29;20047;-69
2023/02/28 03:16:10;;;;;;;23.70;14.55;;;7.00;99.90;;;;;;4953493;29;20039;-72
2023/02/28 03:19:13;;;;;;;24.13;13.52;;;7.00;99.90;;;;;;4920816;29;20050;-69
2023/02/28 03:21:59;;;;;;;21.38;13.48;;;6.90;99.90;;;;;;4935876;29;20043;-70
2023/02/28 03:24:36;;;;;;;19.48;13.35;;;7.00;99.90;;;;;;4920869;28;20058;-70
2023/02/28 03:27:17;;;;;;;23.05;14.05;;;6.90;99.90;;;;;;4953239;29;20062;-72
2023/02/28 03:29:52;;;;;;;25.45;14.02;;;6.80;99.90;;;;;;4935791;29;20043;-72
2023/02/28 03:32:32;;;;;;;22.50;14.27;;;6.80;99.90;;;;;;4935275;29;20411;-70
2023/02/28 03:35:14;;;;;;;26.55;15.02;;;6.80;99.90;;;;;;4937556;29;20051;-69
2023/02/28 03:37:44;;;;;;;25.05;14.55;;;6.70;99.90;;;;;;4923693;29;20428;-71
2023/02/28 03:40:15;;;;;;;23.38;13.73;;;6.80;99.90;;;;;;4953051;29;20423;-71
2023/02/28 03:42:45;;;;;;;;;;;6.90;99.90;;;;;;4953258;29;20046;-71
2023/02/28 03:45:34;;;;;;;23.15;14.02;;;7.00;99.90;;;;;;4921138;29;19930;-71
2023/02/28 03:48:14;;;;;;;26.33;13.82;;;6.90;99.90;;;;;;4929138;29;20051;-70
2023/02/28 03:50:45;;;;;;;25.30;14.43;;;6.80;99.90;;;;;;4949034;29;20132;-69
2023/02/28 03:53:37;;;;;;;23.45;14.50;;;6.90;99.90;;;;;;4936049;29;20043;-71
2023/02/28 03:56:19;;;;;;;28.50;13.70;;;6.90;99.90;;;;;;4920479;29;20055;-71
2023/02/28 03:59:18;;;;;;;23.55;12.88;;;7.00;99.90;;;;;;4935046;29;20384;-72
2023/02/28 04:01:48;;;;;;;22.95;14.15;;;7.00;99.90;;;;;;4920337;29;20141;-70
2023/02/28 04:04:17;;;;;;;22.13;13.10;;;6.90;99.90;;;;;;4920364;29;20039;-70
2023/02/28 04:06:45;;;;;;;23.55;14.30;;;7.00;99.90;;;;;;4920241;29;20055;-72
2023/02/28 04:09:14;;;;;;;21.70;14.55;;;6.80;99.90;;;;;;4936358;29;20054;-71
2023/02/28 04:11:43;;;;;;;19.98;13.82;;;6.80;99.90;;;;;;4935034;29;20393;-73
2023/02/28 04:14:12;;;;;;;27.80;15.13;;;6.80;99.90;;;;;;4935806;29;20042;-70
2023/02/28 04:16:41;;;;;;;21.48;13.45;;;6.80;99.90;;;;;;4931454;29;20051;-69
2023/02/28 04:19:10;;;;;;;23.17;13.65;;;6.80;99.90;;;;;;4950184;29;20039;-70
2023/02/28 04:21:52;;;;;;;24.55;14.60;;;6.80;99.90;;;;;;4933199;29;20051;-72
2023/02/28 04:24:26;;;;;;;23.02;13.70;;;6.90;99.90;;;;;;4929249;29;20047;-70
2023/02/28 04:26:55;;;;;;;19.98;12.98;;;6.90;99.90;;;;;;4921727;29;20051;-68
2023/02/28 04:29:29;;;;;;;23.55;13.80;;;7.00;99.90;;;;;;4929637;29;20043;-70
2023/02/28 04:32:00;;;;;;;21.70;13.23;;;6.90;99.90;;;;;;4932058;29;20052;-73
2023/02/28 04:34:31;;;;;;;20.60;13.27;;;6.70;99.90;;;;;;4919975;29;20127;-73
2023/02/28 04:37:00;;;;;;;;;;;6.70;99.90;;;;;;4935529;29;20158;-72
2023/02/28 04:39:41;;;;;;;19.80;12.00;;;6.90;99.90;;;;;;4932450;29;20275;-70
2023/02/28 04:42:09;;;;;;;23.15;13.85;;;6.90;99.90;;;;;;4932857;29;20074;-72
2023/02/28 04:44:36;;;;;;;25.00;13.88;;;6.90;99.90;;;;;;4937681;29;20395;-69
2023/02/28 04:47:04;;;;;;;21.15;13.02;;;6.90;99.90;;;;;;4923486;29;20043;-73
2023/02/28 04:49:49;;;;;;;25.48;13.05;;;6.80;99.90;;;;;;4955503;29;20411;-70
2023/02/28 04:52:20;;;;;;;21.38;13.65;;;6.80;99.90;;;;;;4923712;29;20062;-69
2023/02/28 04:54:50;;;;;;;21.98;15.00;;;6.80;99.90;;;;;;4923294;29;20039;-71
2023/02/28 04:57:18;;;;;;;22.65;13.90;;;6.70;99.90;;;;;;4923550;29;20059;-72
2023/02/28 04:59:45;;;;;;;22.77;13.75;;;6.80;99.90;;;;;;4955604;29;20134;-72
2023/02/28 05:02:14;;;;;;;20.73;13.48;;;6.90;99.90;;;;;;4938464;29;20047;-71
2023/02/28 05:04:43;;;;;;;;;;;6.70;99.90;;;;;;4939959;29;20050;-72
2023/02/28 05:07:10;;;;;;;22.20;13.57;;;7.00;99.90;;;;;;4955739;29;20448;-71
2023/02/28 05:09:39;;;;;;;22.92;14.45;;;7.00;99.90;;;;;;4955607;29;20529;-71
2023/02/28 05:12:08;;;;;;;20.35;13.02;;;7.00;99.90;;;;;;4954897;29;20059;-73
2023/02/28 05:14:36;;;;;;;21.77;13.57;;;6.90;99.90;;;;;;4955572;29;20589;-70
2023/02/28 05:17:06;;;;;;;22.77;14.02;;;7.00;99.90;;;;;;4938272;29;20544;-70
2023/02/28 05:19:33;;;;;;;23.90;13.43;;;7.10;99.90;;;;;;4951551;29;20441;-69
2023/02/28 05:22:02;;;;;;;22.45;13.40;;;7.10;99.90;;;;;;4922966;29;20051;-72
2023/02/28 05:24:29;;;;;;;26.33;13.65;;;7.00;99.90;;;;;;4938552;29;20106;-71
2023/02/28 05:26:56;;;;;;;23.73;14.65;;;7.00;99.90;;;;;;4955642;29;20047;-69
2023/02/28 05:29:24;;;;;;;23.20;13.90;;;6.70;99.90;;;;;;4955009;29;20134;-71
2023/02/28 05:31:51;;;;;;;22.90;13.15;;;6.80;99.90;;;;;;4937575;29;20126;-69
2023/02/28 05:34:18;;;;;;;21.67;14.15;;;6.90;99.90;;;;;;4954861;29;20050;-73
2023/02/28 05:36:49;;;;;;;22.35;13.07;;;7.00;99.90;;;;;;4953232;29;20035;-70
2023/02/28 05:39:16;;;;;;;20.13;12.55;;;7.10;99.90;;;;;;4922187;29;20054;-69
2023/02/28 05:41:44;;;;;;;21.55;12.85;;;7.10;99.90;;;;;;4954718;29;20039;-70
2023/02/28 05:44:12;;;;;;;23.83;13.50;;;7.00;99.90;;;;;;4954302;29;20141;-70
2023/02/28 05:46:39;;;;;;;24.08;13.48;;;7.00;99.90;;;;;;4951736;29;20063;-72
2023/02/28 05:49:06;;;;;;;21.70;13.43;;;7.10;99.90;;;;;;4954416;29;20396;-71
2023/02/28 05:51:36;;;;;;;24.35;13.30;;;7.00;99.90;;;;;;4953988;29;20054;-72
2023/02/28 05:54:03;;;;;;;24.27;13.45;;;7.00;99.90;;;;;;4954734;29;20071;-72
2023/02/28 05:56:31;;;;;;;24.83;14.48;;;7.00;99.90;;;;;;4930559;29;20102;-69
2023/02/28 05:58:58;;;;;;;99.20;49.67;;;7.00;99.90;;;;;;4946469;29;20050;-70
2023/02/28 06:01:33;;;;;;;24.50;15.65;;;7.00;99.90;;;;;;4954445;29;20055;-72
2023/02/28 06:04:05;;;;;;;22.67;13.52;;;6.80;99.90;;;;;;4953571;29;20039;-71
2023/02/28 06:06:34;;;;;;;25.25;13.82;;;6.70;99.90;;;;;;4936455;29;20406;-73
2023/02/28 06:09:04;;;;;;;21.75;12.75;;;6.80;99.90;;;;;;4923494;29;20118;-69
2023/02/28 06:11:33;;;;;;;41.20;24.83;;;6.80;99.90;;;;;;4952261;29;20090;-71
2023/02/28 06:14:01;;;;;;;54.88;29.80;;;6.90;99.90;;;;;;4932820;29;20031;-72
2023/02/28 06:16:30;;;;;;;36.35;22.40;;;7.50;99.90;;;;;;4934763;29;20051;-72
2023/02/28 06:18:59;;;;;;;26.00;14.38;;;7.60;99.90;;;;;;4952290;29;20094;-71
2023/02/28 06:21:27;;;;;;;23.73;13.25;;;7.40;99.90;;;;;;4950334;29;20043;-68
2023/02/28 06:23:57;;;;;;;24.98;14.20;;;7.30;99.90;;;;;;4950598;29;20055;-72
2023/02/28 06:26:24;;;;;;;23.52;14.20;;;7.20;99.90;;;;;;4918201;29;20090;-71
2023/02/28 06:28:51;;;;;;;21.85;13.27;;;7.30;99.90;;;;;;4932426;29;20069;-69
2023/02/28 06:31:19;;;;;;;25.15;14.70;;;7.40;99.90;;;;;;4935120;29;20032;-70
2023/02/28 06:33:47;;;;;;;25.92;14.15;;;7.50;99.90;;;;;;4952033;29;20047;-70
2023/02/28 06:36:15;;;;;;;22.10;13.80;;;7.50;99.90;;;;;;4951658;29;20121;-70
2023/02/28 06:38:43;;;;;;;28.65;14.82;;;7.60;99.90;;;;;;4936511;29;20492;-72
2023/02/28 06:41:10;;;;;;;25.25;14.77;;;7.60;99.90;;;;;;4954213;29;20403;-70
2023/02/28 06:43:41;;;;;;;23.40;13.93;;;7.50;99.90;;;;;;4946608;29;20395;-71
2023/02/28 06:46:14;;;;;;;20.52;12.48;;;7.50;99.90;;;;;;4916381;29;20050;-72
2023/02/28 06:48:44;;;;;;;29.48;16.83;;;7.40;99.90;;;;;;4948426;29;20036;-71
2023/02/28 06:51:15;;;;;;;77.60;44.05;;;7.40;99.90;;;;;;4937037;29;20039;-72
2023/02/28 06:53:42;;;;;;;;;;;7.80;99.90;;;;;;4937797;29;20043;-71
2023/02/28 06:56:12;;;;;;;29.70;17.60;;;7.90;99.90;;;;;;4953281;29;19922;-73
2023/02/28 06:58:40;;;;;;;23.60;15.48;;;7.80;99.90;;;;;;4936286;29;20069;-71
2023/02/28 07:01:08;;;;;;;23.45;14.40;;;7.80;99.90;;;;;;4953164;29;20031;-69
2023/02/28 07:03:36;;;;;;;25.45;15.57;;;7.70;99.90;;;;;;4953134;29;20368;-74
2023/02/28 07:06:05;;;;;;;26.33;15.43;;;7.70;99.90;;;;;;4953737;29;20487;-71
2023/02/28 07:08:33;;;;;;;24.85;14.82;;;7.60;99.90;;;;;;4949629;28;20047;-70
2023/02/28 07:11:00;;;;;;;28.75;14.60;;;7.70;99.90;;;;;;4953491;29;20050;-70
2023/02/28 07:13:28;;;;;;;25.60;14.52;;;7.70;99.90;;;;;;4953113;29;20039;-72
2023/02/28 07:15:59;;;;;;;26.90;14.68;;;7.70;99.90;;;;;;4936049;29;20069;-72
2023/02/28 07:18:27;;;;;;;24.55;14.23;;;7.70;99.90;;;;;;4950711;29;20047;-72
2023/02/28 07:20:55;;;;;;;28.45;16.30;;;7.60;99.90;;;;;;4939092;29;20122;-70
2023/02/28 07:23:23;;;;;;;28.50;15.45;;;7.60;99.90;;;;;;4950597;29;20468;-70
2023/02/28 07:25:51;;;;;;;24.33;15.75;;;7.80;99.90;;;;;;4944584;29;20075;-71
2023/02/28 07:28:18;;;;;;;25.17;15.10;;;7.80;99.90;;;;;;4950596;29;20435;-70
2023/02/28 07:30:46;;;;;;;30.08;15.20;;;7.80;99.90;;;;;;4952654;29;20440;-70
2023/02/28 07:33:21;;;;;;;26.33;15.43;;;7.90;99.90;;;;;;4952703;29;20047;-70
2023/02/28 07:35:49;;;;;;;24.92;15.13;;;7.90;99.90;;;;;;4916509;29;20476;-73
2023/02/28 07:38:19;;;;;;;25.38;15.40;;;8.10;99.90;;;;;;4935738;29;20051;-71
2023/02/28 07:40:46;;;;;;;24.52;15.18;;;8.30;99.90;;;;;;4949700;29;20546;-73
2023/02/28 07:43:13;;;;;;;32.28;15.05;;;8.50;99.90;;;;;;4952327;29;20451;-72
2023/02/28 07:45:40;;;;;;;30.42;15.98;;;8.50;99.90;;;;;;4935853;29;20051;-72
2023/02/28 07:48:11;;;;;;;27.75;16.25;;;8.40;99.90;;;;;;4936408;29;20412;-70
2023/02/28 07:50:38;;;;;;;27.30;17.00;;;8.30;99.90;;;;;;4935896;29;20174;-71
2023/02/28 07:53:05;;;;;;;30.42;15.60;;;8.20;99.90;;;;;;4935819;29;20043;-70
2023/02/28 07:55:32;;;;;;;27.65;15.80;;;8.00;99.90;;;;;;4935893;29;20624;-72
2023/02/28 07:58:00;;;;;;;31.50;15.40;;;8.00;99.90;;;;;;4935732;29;20154;-70
2023/02/28 08:00:28;;;;;;;35.20;15.63;;;8.10;99.90;;;;;;4952414;29;20411;-72
2023/02/28 08:02:56;;;;;;;24.05;15.13;;;8.20;99.90;;;;;;4935193;29;20522;-72
2023/02/28 08:05:23;;;;;;;29.23;16.52;;;8.10;99.90;;;;;;4935647;29;20416;-72
2023/02/28 08:07:51;;;;;;;24.42;14.93;;;8.10;99.90;;;;;;4945347;29;20039;-72
2023/02/28 08:10:18;;;;;;;28.30;15.40;;;8.20;99.90;;;;;;4952640;29;20047;-72
2023/02/28 08:12:45;;;;;;;28.17;16.38;;;8.20;99.90;;;;;;4919763;29;20074;-70
2023/02/28 08:15:12;;;;;;;30.10;16.80;;;8.10;99.90;;;;;;4919553;29;20422;-70
2023/02/28 08:17:43;;;;;;;27.38;16.92;;;8.10;99.90;;;;;;4935885;29;20039;-72
2023/02/28 08:20:11;;;;;;;31.35;17.45;;;8.30;99.90;;;;;;4940787;29;20110;-73
2023/02/28 08:22:38;;;;;;;28.58;16.20;;;8.40;99.90;;;;;;4959228;29;20047;-72
2023/02/28 08:25:07;;;;;;;32.38;17.20;;;8.30;99.90;;;;;;4926338;29;20178;-73
2023/02/28 08:27:37;;;;;;;31.30;17.83;;;8.40;99.90;;;;;;4938340;29;20051;-70
2023/02/28 08:30:05;;;;;;;32.50;17.88;;;8.50;99.90;;;;;;4942247;29;20047;-74
2023/02/28 08:32:33;;;;;;;33.97;17.95;;;8.70;99.90;;;;;;4958882;28;20392;-73
2023/02/28 08:35:01;;;;;;;33.67;18.80;;;8.70;99.90;;;;;;4959069;28;20042;-72
2023/02/28 08:37:28;;;;;;;30.63;17.65;;;8.70;99.90;;;;;;4959103;29;20067;-74
2023/02/28 08:39:56;;;;;;;29.33;18.05;;;8.80;99.90;;;;;;4958847;29;20118;-73
2023/02/28 08:42:30;;;;;;;33.50;18.48;;;8.50;99.90;;;;;;4958709;28;20039;-71
2023/02/28 08:45:03;;;;;;;33.25;18.75;;;8.80;99.90;;;;;;4923186;29;20044;-72
2023/02/28 08:47:30;;;;;;;32.78;20.55;;;9.00;99.90;;;;;;4959315;29;20390;-70
2023/02/28 08:49:57;;;;;;;43.65;22.73;;;9.10;99.90;;;;;;4958436;29;20050;-71
2023/02/28 08:52:24;;;;;;;35.58;19.73;;;9.30;99.90;;;;;;4958792;29;20395;-72
2023/02/28 08:54:52;;;;;;;31.73;18.25;;;9.30;99.90;;;;;;4959178;28;20047;-73
2023/02/28 08:57:20;;;;;;;31.85;18.75;;;9.10;99.90;;;;;;4958677;28;20078;-70
2023/02/28 08:59:47;;;;;;;33.88;18.17;;;9.00;99.90;;;;;;4957992;29;20491;-70
2023/02/28 09:02:14;;;;;;;35.88;18.65;;;9.00;99.90;;;;;;4941345;29;20395;-70
2023/02/28 09:04:42;;;;;;;31.05;19.45;;;8.90;99.90;;;;;;4958000;28;20487;-71
2023/02/28 09:07:09;;;;;;;29.88;18.48;;;8.80;99.90;;;;;;4941022;29;20039;-70
2023/02/28 09:09:36;;;;;;;34.42;18.98;;;8.90;99.90;;;;;;4925646;29;20454;-71
2023/02/28 09:12:07;;;;;;;31.40;18.27;;;9.00;99.90;;;;;;4957755;29;20122;-71
2023/02/28 09:14:34;;;;;;;33.05;18.83;;;9.10;99.90;;;;;;4955178;29;20048;-69
2023/02/28 09:17:03;;;;;;;32.17;19.15;;;9.20;99.90;;;;;;4958166;29;20495;-70
2023/02/28 09:19:32;;;;;;;36.50;19.30;;;9.20;99.90;;;;;;4957583;29;20447;-73
2023/02/28 09:21:59;;;;;;;35.63;19.38;;;9.10;99.90;;;;;;4940977;29;20039;-72
2023/02/28 09:24:26;;;;;;;35.47;20.45;;;9.20;99.90;;;;;;4953608;29;20047;-72
2023/02/28 09:26:56;;;;;;;35.35;20.55;;;9.20;99.90;;;;;;4955514;29;20110;-71
2023/02/28 09:29:33;;;;;;;36.20;19.90;;;9.20;99.90;;;;;;4925520;28;20039;-70
2023/02/28 09:32:01;;;;;;;37.20;20.98;;;9.20;99.90;;;;;;4936742;29;20051;-71
2023/02/28 09:34:32;;;;;;;40.55;20.17;;;9.20;99.90;;;;;;4938184;29;20079;-73
2023/02/28 09:36:59;;;;;;;31.75;17.88;;;9.30;99.90;;;;;;4955514;29;20094;-72
2023/02/28 09:39:26;;;;;;;33.65;20.75;;;9.40;99.90;;;;;;4954629;29;20035;-69
2023/02/28 09:41:55;;;;;;;34.08;19.48;;;9.70;99.90;;;;;;4920244;29;20559;-69
2023/02/28 09:44:38;;;;;;;38.08;19.77;;;9.80;99.90;;;;;;4954429;29;20039;-69
2023/02/28 09:47:10;;;;;;;33.65;19.50;;;9.70;99.90;;;;;;4937594;29;20045;-69
2023/02/28 09:49:43;;;;;;;35.08;19.50;;;9.70;99.90;;;;;;4952923;29;20435;-71
2023/02/28 09:52:16;;;;;;;33.20;19.52;;;9.60;99.90;;;;;;4937638;29;20400;-70
2023/02/28 09:54:43;;;;;;;33.78;18.25;;;9.50;99.90;;;;;;4954902;29;20378;-71
2023/02/28 09:57:26;;;;;;;35.90;18.38;;;9.60;99.90;;;;;;4953168;29;20047;-69
2023/02/28 10:00:13;;;;;;;31.77;18.20;;;9.80;99.90;;;;;;4947015;29;20043;-70
2023/02/28 10:02:59;;;;;;;34.88;19.98;;;9.80;99.90;;;;;;4946352;29;20083;-73
2023/02/28 10:05:53;;;;;;;36.45;20.80;;;9.80;99.90;;;;;;4951674;29;20073;-72
2023/02/28 10:08:25;;;;;;;37.40;19.80;;;9.90;99.90;;;;;;4944545;29;20130;-70
2023/02/28 10:11:04;;;;;;;35.70;19.90;;;9.90;99.90;;;;;;4922488;29;20065;-73
2023/02/28 10:13:55;;;;;;;37.17;21.50;;;9.70;99.90;;;;;;4920903;29;20047;-73
2023/02/28 10:16:33;;;;;;;37.65;20.85;;;10.00;99.90;;;;;;4919646;29;20122;-74
2023/02/28 10:19:06;;;;;;;33.50;19.15;;;10.40;99.90;;;;;;4944867;29;20504;-75
2023/02/28 10:21:46;;;;;;;40.05;21.83;;;10.90;99.90;;;;;;4954264;29;20045;-71
2023/02/28 10:24:20;;;;;;;33.53;19.92;;;11.10;99.90;;;;;;4922302;29;20078;-74
2023/02/28 10:26:48;;;;;;;31.90;19.00;;;10.90;99.90;;;;;;4924917;29;20130;-71
2023/02/28 10:29:16;;;;;;;34.80;19.35;;;10.80;99.90;;;;;;4921574;29;20069;-71
2023/02/28 10:31:43;;;;;;;33.47;20.10;;;10.80;99.90;;;;;;4920058;29;20058;-74
2023/02/28 10:34:12;;;;;;;30.33;19.52;;;11.10;99.90;;;;;;4936755;29;20043;-75
2023/02/28 10:36:42;;;;;;;33.72;19.08;;;11.20;99.90;;;;;;4952477;29;20154;-72
2023/02/28 10:39:35;;;;;;;34.15;19.58;;;11.30;99.90;;;;;;4921917;29;20488;-72
2023/02/28 10:42:02;;;;;;;31.38;19.73;;;11.20;99.90;;;;;;4953304;28;20039;-71
2023/02/28 10:44:30;;;;;;;38.70;19.80;;;11.10;99.90;;;;;;4954246;29;20051;-74
2023/02/28 10:46:57;;;;;;;43.30;20.73;;;11.10;99.90;;;;;;4945465;29;20036;-74
2023/02/28 10:49:29;;;;;;;36.28;19.30;;;11.30;99.90;;;;;;4911973;29;20499;-73
2023/02/28 10:51:59;;;;;;;38.42;20.50;;;11.40;99.90;;;;;;4936610;29;20051;-72
2023/02/28 10:54:37;;;;;;;39.28;20.08;;;11.40;99.90;;;;;;4953477;29;20483;-72
2023/02/28 10:57:30;;;;;;;38.97;20.13;;;11.30;99.90;;;;;;4936372;29;20047;-70
2023/02/28 11:00:15;;;;;;;36.50;18.98;;;11.50;99.90;;;;;;4953771;29;20050;-70
2023/02/28 11:02:46;;;;;;;32.15;20.73;;;11.90;99.90;;;;;;4941946;29;20411;-71
2023/02/28 11:05:29;;;;;;;36.33;20.40;;;11.90;99.90;;;;;;4929907;28;20675;-71
2023/02/28 11:08:02;;;;;;;31.45;18.83;;;12.00;99.90;;;;;;4948300;29;20050;-71
2023/02/28 11:10:34;;;;;;;31.40;20.05;;;12.40;99.90;;;;;;4915056;29;20048;-72
2023/02/28 11:13:03;;;;;;;34.25;19.50;;;12.10;99.90;;;;;;4907175;23;20044;-71
2023/02/28 11:15:34;;;;;;;32.35;20.02;;;12.00;99.90;;;;;;4931908;29;20600;-72
2023/02/28 11:18:25;;;;;;;;;;;12.30;99.90;;;;;;4900003;29;20055;-71
2023/02/28 11:21:02;;;;;;;32.35;19.00;;;12.60;99.90;;;;;;4924754;29;20414;-70
2023/02/28 11:23:33;;;;;;;35.42;20.20;;;12.80;99.90;;;;;;4915199;29;20563;-74
2023/02/28 11:26:04;;;;;;;37.65;20.45;;;13.00;99.90;;;;;;4931343;29;20134;-72
2023/02/28 11:28:35;;;;;;;36.55;21.55;;;12.80;99.90;;;;;;4933925;29;20047;-74
2023/02/28 11:31:04;;;;;;;31.00;19.80;;;13.30;99.90;;;;;;4914766;29;20043;-71
2023/02/28 11:33:53;;;;;;;35.15;20.52;;;13.50;99.90;;;;;;4933425;29;20044;-71
2023/02/28 11:36:30;;;;;;;32.00;20.05;;;13.30;99.90;;;;;;4909640;29;20083;-75
2023/02/28 11:39:09;;;;;;;38.72;22.48;;;12.90;99.90;;;;;;4929681;29;20492;-76
2023/02/28 11:41:51;;;;;;;39.38;23.95;;;13.10;99.90;;;;;;4912719;29;20043;-75
2023/02/28 11:44:39;;;;;;;36.78;21.30;;;12.90;99.90;;;;;;4877798;29;20134;-71
2023/02/28 11:47:36;;;;;;;36.58;20.80;;;13.40;99.90;;;;;;4867092;29;20493;-73
2023/02/28 11:50:39;;;;;;;34.10;19.20;;;13.70;99.90;;;;;;4899911;29;20032;-68
2023/02/28 11:53:14;;;;;;;29.00;17.88;;;14.10;99.90;;;;;;4896376;29;20538;-71
2023/02/28 11:56:14;;;;;;;33.95;19.83;;;14.60;99.90;;;;;;4896699;29;20412;-71
2023/02/28 11:59:24;;;;;;;32.72;19.00;;;15.20;99.10;;;;;;4894223;29;20371;-70
2023/02/28 12:02:02;;;;;;;26.20;17.50;;;15.50;97.90;;;;;;4821094;29;20057;-71
2023/02/28 12:04:47;;;;;;;30.90;19.35;;;15.40;96.80;;;;;;4819995;29;20058;-71
2023/02/28 12:07:32;;;;;;;29.33;18.98;;;15.20;96.80;;;;;;4872590;29;20044;-77
2023/02/28 12:10:23;;;;;;;34.40;19.77;;;15.30;97.00;;;;;;4880534;29;20119;-74
2023/02/28 12:13:00;;;;;;;30.33;18.42;;;15.50;97.00;;;;;;4881015;29;20052;-71
2023/02/28 12:15:48;;;;;;;32.63;17.92;;;15.90;95.90;;;;;;4896153;29;20055;-74
2023/02/28 12:18:45;;;;;;;28.88;18.00;;;15.80;95.70;;;;;;4878685;29;20044;-70
2023/02/28 12:21:38;;;;;;;31.45;17.30;;;15.70;96.20;;;;;;4890166;29;20037;-76
2023/02/28 12:24:24;;;;;;;32.50;18.23;;;16.10;95.40;;;;;;4897578;29;20041;-75
2023/02/28 12:26:54;;;;;;;27.90;17.25;;;16.60;94.00;;;;;;4882496;29;20060;-73
2023/02/28 12:29:32;;;;;;;53.95;20.35;;;16.70;93.90;;;;;;4898922;29;20041;-77
2023/02/28 12:32:09;;;;;;;35.60;17.10;;;17.30;92.90;;;;;;4885029;29;20147;-70
2023/02/28 12:35:03;;;;;;;34.75;16.45;;;19.00;87.50;;;;;;4878057;29;20051;-73
2023/02/28 12:37:30;;;;;;;29.60;16.27;;;20.80;76.50;;;;;;4889127;29;20518;-73
2023/02/28 12:40:15;;;;;;;28.70;17.13;;;21.40;74.10;;;;;;4896367;29;20044;-71
2023/02/28 12:43:07;;;;;;;26.88;16.50;;;22.00;70.40;;;;;;4879776;29;20048;-73
2023/02/28 12:46:16;;;;;;;26.33;15.82;;;21.50;69.90;;;;;;4885579;29;20040;-71
2023/02/28 12:49:06;;;;;;;32.00;18.58;;;20.90;71.50;;;;;;4878912;29;20148;-73
2023/02/28 12:51:39;;;;;;;31.35;20.27;;;21.80;69.60;;;;;;4880048;29;20071;-71
2023/02/28 12:54:33;;;;;;;23.40;15.48;;;21.80;68.00;;;;;;4866375;29;20056;-71
2023/02/28 12:57:13;;;;;;;26.70;13.90;;;21.90;67.60;;;;;;4878314;29;20390;-71
2023/02/28 12:59:51;;;;;;;26.55;13.57;;;20.30;71.90;;;;;;4897551;29;20064;-72
2023/02/28 13:02:30;;;;;;;21.17;12.63;;;20.40;71.00;;;;;;4881688;29;20489;-69
2023/02/28 13:05:07;;;;;;;21.23;11.80;;;20.30;70.80;;;;;;4884945;29;20075;-73
2023/02/28 13:07:41;;;;;;;23.27;11.85;;;20.30;70.90;;;;;;4899862;29;20044;-69
2023/02/28 13:10:10;;;;;;;20.73;12.63;;;20.30;71.30;;;;;;4884199;29;20465;-69